Time;durP1;ratioP1;P1;durP2;ratioP2;P2;SDS_P1;SDS_P2;PMS_P1;PMS_P2;Temp;Humidity;BMP_temperature;BMP_pressure;BME280_temperature;BME280_humidity;BME280_pressure;Samples;Min_cycle;Max_cycle;Signal;HPM_P1;HPM_P2
2022/07/10 00:01:57;;;;;;;10.80;2.43;;;15.80;99.90;;;;;;4955089;29;20138;-68
2022/07/10 00:04:23;;;;;;;9.30;2.17;;;15.70;99.90;;;;;;4955113;29;20047;-68
2022/07/10 00:06:48;;;;;;;8.17;1.93;;;15.70;99.90;;;;;;4955149;28;20094;-68
2022/07/10 00:09:14;;;;;;;11.03;2.40;;;15.60;99.90;;;;;;4953668;29;20406;-68
2022/07/10 00:11:41;;;;;;;11.23;2.40;;;15.60;99.90;;;;;;4954946;28;20543;-68
2022/07/10 00:14:07;;;;;;;6.93;1.83;;;15.60;99.90;;;;;;4954605;28;20048;-68
2022/07/10 00:16:33;;;;;;;11.03;2.37;;;15.60;99.90;;;;;;4955028;28;20282;-68
2022/07/10 00:18:59;;;;;;;13.90;2.00;;;15.60;99.90;;;;;;4954801;28;20077;-68
2022/07/10 00:21:24;;;;;;;8.17;1.60;;;15.60;99.90;;;;;;4954924;29;20051;-68
2022/07/10 00:23:50;;;;;;;9.17;1.83;;;15.60;99.90;;;;;;4954850;28;20050;-68
2022/07/10 00:26:16;;;;;;;10.90;2.20;;;15.60;99.90;;;;;;4953620;29;20043;-68
2022/07/10 00:28:41;;;;;;;14.57;2.73;;;15.50;99.90;;;;;;4954802;28;20062;-68
2022/07/10 00:31:10;;;;;;;11.93;2.63;;;15.60;99.90;;;;;;4954625;29;20138;-68
2022/07/10 00:33:37;;;;;;;10.03;2.17;;;15.50;99.90;;;;;;4954899;28;20047;-68
2022/07/10 00:36:06;;;;;;;10.67;2.50;;;15.50;99.90;;;;;;4954626;28;20285;-68
2022/07/10 00:38:32;;;;;;;13.40;2.13;;;15.50;99.90;;;;;;4953719;29;20294;-68
2022/07/10 00:40:58;;;;;;;14.67;2.67;;;15.50;99.90;;;;;;4954350;28;20282;-68
2022/07/10 00:43:24;;;;;;;9.70;2.23;;;15.50;99.90;;;;;;4954831;28;20055;-68
2022/07/10 00:45:50;;;;;;;7.80;1.80;;;15.40;99.90;;;;;;4953640;29;20055;-68
2022/07/10 00:48:16;;;;;;;10.47;2.47;;;15.50;99.90;;;;;;4954439;29;20044;-68
2022/07/10 00:50:44;;;;;;;10.03;2.23;;;15.40;99.90;;;;;;4954686;28;20057;-68
2022/07/10 00:53:10;;;;;;;11.03;2.20;;;15.50;99.90;;;;;;4954250;28;20514;-68
2022/07/10 00:55:37;;;;;;;11.90;2.10;;;15.50;99.90;;;;;;4957430;28;20282;-68
2022/07/10 00:58:06;;;;;;;9.57;2.00;;;15.50;99.90;;;;;;4958421;28;20089;-68
2022/07/10 01:00:33;;;;;;;13.27;2.63;;;15.60;99.90;;;;;;4958829;28;20275;-68
2022/07/10 01:02:59;;;;;;;12.07;1.80;;;15.60;99.90;;;;;;4958238;28;20298;-70
2022/07/10 01:05:24;;;;;;;8.63;1.90;;;15.60;99.90;;;;;;4957113;29;20778;-68
2022/07/10 01:07:50;;;;;;;8.43;1.93;;;15.60;99.90;;;;;;4958287;29;20089;-68
2022/07/10 01:10:16;;;;;;;8.70;2.00;;;15.60;99.90;;;;;;4957935;29;20110;-68
2022/07/10 01:12:43;;;;;;;10.80;2.27;;;15.50;99.90;;;;;;4958406;28;20039;-68
2022/07/10 01:15:09;;;;;;;11.03;2.10;;;15.50;99.90;;;;;;4958005;28;20279;-68
2022/07/10 01:17:35;;;;;;;8.73;2.50;;;15.40;99.90;;;;;;4958200;28;20289;-68
2022/07/10 01:20:08;;;;;;;11.50;2.17;;;15.40;99.90;;;;;;4957019;29;20331;-70
2022/07/10 01:22:35;;;;;;;13.90;2.00;;;15.40;99.90;;;;;;4958010;28;20317;-68
2022/07/10 01:25:01;;;;;;;13.60;2.93;;;15.30;99.90;;;;;;4957907;28;20290;-70
2022/07/10 01:27:27;;;;;;;11.17;2.23;;;15.30;99.90;;;;;;4957084;29;20287;-68
2022/07/10 01:29:54;;;;;;;10.80;2.60;;;15.20;99.90;;;;;;4956564;29;20055;-68
2022/07/10 01:32:19;;;;;;;11.17;2.00;;;15.20;99.90;;;;;;4957545;28;20047;-68
2022/07/10 01:34:46;;;;;;;11.80;1.83;;;15.20;99.90;;;;;;4957706;29;20274;-68
2022/07/10 01:37:12;;;;;;;11.70;2.27;;;15.30;99.90;;;;;;4957528;28;20134;-68
2022/07/10 01:39:38;;;;;;;9.87;2.10;;;15.30;99.90;;;;;;4957660;29;20362;-68
2022/07/10 01:42:04;;;;;;;11.80;2.23;;;15.40;99.90;;;;;;4956624;29;20055;-68
2022/07/10 01:44:30;;;;;;;8.33;2.40;;;15.40;99.90;;;;;;4957665;28;20040;-68
2022/07/10 01:46:55;;;;;;;8.97;1.83;;;15.40;99.90;;;;;;4957742;28;20349;-68
2022/07/10 01:49:21;;;;;;;9.80;2.13;;;15.40;99.90;;;;;;4940484;29;20075;-68
2022/07/10 01:51:47;;;;;;;12.30;2.33;;;15.40;99.90;;;;;;4957459;28;20109;-68
2022/07/10 01:54:13;;;;;;;11.40;2.37;;;15.40;99.90;;;;;;4957084;28;20464;-68
2022/07/10 01:56:39;;;;;;;11.93;2.27;;;15.40;99.90;;;;;;4957455;29;20043;-68
2022/07/10 01:59:05;;;;;;;13.70;2.60;;;15.20;99.90;;;;;;4957026;29;20428;-69
2022/07/10 02:01:31;;;;;;;8.67;2.00;;;15.20;99.90;;;;;;4957329;29;20047;-68
2022/07/10 02:06:42;;;;;;;5.80;1.35;;;15.20;99.90;;;;;;4956674;28;20747;-68
2022/07/10 02:09:08;;;;;;;7.53;1.60;;;15.10;99.90;;;;;;4956099;29;20055;-68
2022/07/10 02:11:33;;;;;;;15.80;2.23;;;15.10;99.90;;;;;;4957076;28;20566;-68
2022/07/10 02:13:59;;;;;;;11.13;2.43;;;15.10;99.90;;;;;;4957090;29;20093;-67
2022/07/10 02:16:24;;;;;;;13.90;2.67;;;15.00;99.90;;;;;;4955771;29;20479;-68
2022/07/10 02:18:50;;;;;;;9.93;2.00;;;15.10;99.90;;;;;;4956941;28;20043;-68
2022/07/10 02:21:16;;;;;;;8.03;2.20;;;15.10;99.90;;;;;;4956543;29;20450;-68
2022/07/10 02:23:42;;;;;;;6.60;1.70;;;15.10;99.90;;;;;;4956890;28;20047;-68
2022/07/10 02:26:08;;;;;;;7.37;1.87;;;15.10;99.90;;;;;;4957098;28;20125;-69
2022/07/10 02:28:34;;;;;;;9.40;1.93;;;15.10;99.90;;;;;;4957191;28;20380;-68
2022/07/10 02:31:00;;;;;;;6.83;1.50;;;15.10;99.90;;;;;;4956964;28;20285;-68
2022/07/10 02:33:25;;;;;;;11.27;2.20;;;15.20;99.90;;;;;;4956438;29;20047;-68
2022/07/10 02:35:51;;;;;;;9.43;1.93;;;15.20;99.90;;;;;;4955561;29;20129;-68
2022/07/10 02:38:17;;;;;;;9.20;1.73;;;15.20;99.90;;;;;;4956527;29;20514;-68
2022/07/10 02:40:43;;;;;;;10.20;1.83;;;15.20;99.90;;;;;;4956657;28;20491;-68
2022/07/10 02:43:08;;;;;;;10.00;1.70;;;15.20;99.90;;;;;;4956578;29;20460;-68
2022/07/10 02:45:34;;;;;;;10.67;2.60;;;15.30;99.90;;;;;;4956396;29;20078;-68
2022/07/10 02:48:00;;;;;;;9.73;1.50;;;15.30;99.90;;;;;;4955517;29;20047;-68
2022/07/10 02:50:25;;;;;;;13.10;2.40;;;15.30;99.90;;;;;;4956042;29;20047;-68
2022/07/10 02:52:51;;;;;;;8.10;1.60;;;15.30;99.90;;;;;;4956285;29;20102;-68
2022/07/10 02:55:17;;;;;;;9.53;1.80;;;15.40;99.90;;;;;;4956304;28;20055;-68
2022/07/10 02:57:42;;;;;;;7.70;1.50;;;15.40;99.90;;;;;;4956445;28;20055;-68
2022/07/10 03:00:09;;;;;;;8.57;1.40;;;15.40;99.90;;;;;;4956297;29;20444;-68
2022/07/10 03:02:34;;;;;;;12.47;4.03;;;15.40;99.90;;;;;;4955894;28;20087;-68
2022/07/10 03:05:00;;;;;;;8.57;1.77;;;15.40;99.90;;;;;;4955118;29;20298;-68
2022/07/10 03:07:26;;;;;;;8.93;1.70;;;15.40;99.90;;;;;;4956020;29;20047;-68
2022/07/10 03:09:51;;;;;;;11.33;2.27;;;15.40;99.90;;;;;;4956121;29;20047;-68
2022/07/10 03:12:17;;;;;;;15.37;1.90;;;15.40;99.90;;;;;;4955674;29;20055;-68
2022/07/10 03:14:43;;;;;;;10.90;2.03;;;15.40;99.90;;;;;;4955947;29;20051;-68
2022/07/10 03:17:08;;;;;;;10.47;2.50;;;15.40;99.90;;;;;;4955767;28;20510;-68
2022/07/10 03:19:34;;;;;;;13.37;2.33;;;15.50;99.90;;;;;;4954989;28;20391;-68
2022/07/10 03:21:59;;;;;;;8.77;1.77;;;15.50;99.90;;;;;;4956069;28;20054;-68
2022/07/10 03:24:25;;;;;;;10.83;2.63;;;15.50;99.90;;;;;;4955828;29;20517;-68
2022/07/10 03:26:51;;;;;;;14.60;2.63;;;15.50;99.90;;;;;;4955699;29;20051;-68
2022/07/10 03:29:16;;;;;;;9.30;1.60;;;15.50;99.90;;;;;;4955784;29;20059;-68
2022/07/10 03:31:42;;;;;;;13.17;1.90;;;15.60;99.90;;;;;;4955633;28;20047;-68
2022/07/10 03:34:09;;;;;;;7.73;2.30;;;15.60;99.90;;;;;;4955672;28;20102;-68
2022/07/10 03:36:35;;;;;;;9.70;2.00;;;15.60;99.90;;;;;;4955444;28;20167;-68
2022/07/10 03:39:08;;;;;;;11.53;1.80;;;15.50;99.90;;;;;;5110801;27;20469;-68
2022/07/10 03:41:34;;;;;;;8.27;1.80;;;15.60;99.90;;;;;;5110464;28;20645;-69
2022/07/10 03:43:59;;;;;;;13.97;2.30;;;15.60;99.90;;;;;;5109849;28;20294;-68
2022/07/10 03:46:25;;;;;;;9.70;1.90;;;15.60;99.90;;;;;;5109161;28;20043;-68
2022/07/10 03:48:51;;;;;;;7.43;1.90;;;15.60;99.90;;;;;;5109876;28;20494;-69
2022/07/10 03:51:17;;;;;;;12.10;2.23;;;15.60;99.90;;;;;;5109240;28;20056;-70
2022/07/10 03:53:43;;;;;;;11.43;2.40;;;15.60;99.90;;;;;;5110607;28;20769;-68
2022/07/10 03:56:08;;;;;;;8.23;1.77;;;15.70;99.90;;;;;;5110252;28;20040;-68
2022/07/10 03:58:34;;;;;;;10.07;2.00;;;15.60;99.90;;;;;;5109998;28;20130;-69
2022/07/10 04:01:00;;;;;;;10.63;2.23;;;15.60;99.90;;;;;;5110376;28;20082;-68
2022/07/10 04:03:25;;;;;;;10.50;2.43;;;15.60;99.90;;;;;;5109948;28;20475;-69
2022/07/10 04:05:51;;;;;;;8.47;2.53;;;15.60;99.90;;;;;;5110530;28;20134;-68
2022/07/10 04:08:17;;;;;;;10.33;2.13;;;15.60;99.90;;;;;;5109009;28;20036;-68
2022/07/10 04:10:42;;;;;;;15.10;2.57;;;15.60;99.90;;;;;;5110080;28;20050;-68
2022/07/10 04:13:08;;;;;;;9.77;2.57;;;15.60;99.90;;;;;;5110186;28;20144;-68
2022/07/10 04:15:34;;;;;;;10.40;2.20;;;15.60;99.90;;;;;;5109779;28;20505;-67
2022/07/10 04:17:59;;;;;;;11.90;2.70;;;15.50;99.90;;;;;;5109785;28;20043;-68
2022/07/10 04:20:25;;;;;;;13.83;2.80;;;15.50;99.90;;;;;;5109880;28;20039;-70
2022/07/10 04:22:51;;;;;;;12.33;2.43;;;15.60;99.90;;;;;;5110049;28;20560;-69
2022/07/10 04:25:16;;;;;;;10.30;2.87;;;15.60;99.90;;;;;;5109684;28;20082;-69
2022/07/10 04:27:42;;;;;;;9.70;2.53;;;15.60;99.90;;;;;;5109373;28;20093;-69
2022/07/10 04:30:08;;;;;;;12.43;2.30;;;15.60;99.90;;;;;;5109650;28;20039;-69
2022/07/10 04:32:34;;;;;;;10.47;2.47;;;15.60;99.90;;;;;;5109256;28;20044;-69
2022/07/10 04:35:01;;;;;;;12.27;2.60;;;15.60;99.90;;;;;;5109832;28;20282;-68
2022/07/10 04:37:27;;;;;;;11.37;2.50;;;15.60;99.90;;;;;;5109300;28;20070;-67
2022/07/10 04:39:53;;;;;;;14.07;3.07;;;15.60;99.90;;;;;;5091690;28;20301;-68
2022/07/10 04:42:19;;;;;;;11.67;2.60;;;15.60;99.90;;;;;;5108766;28;20290;-68
2022/07/10 04:44:44;;;;;;;14.30;3.00;;;15.60;99.90;;;;;;5109159;28;20048;-68
2022/07/10 04:47:11;;;;;;;12.00;2.90;;;15.50;99.90;;;;;;5109188;28;20043;-68
2022/07/10 04:49:36;;;;;;;12.33;3.53;;;15.50;99.90;;;;;;5100587;28;20044;-68
2022/07/10 04:52:02;;;;;;;14.33;3.30;;;15.50;99.90;;;;;;5095782;28;20289;-68
2022/07/10 04:54:28;;;;;;;9.93;2.50;;;15.50;99.90;;;;;;5095419;28;20058;-68
2022/07/10 04:56:54;;;;;;;12.47;2.63;;;15.50;99.90;;;;;;5095514;28;20087;-68
2022/07/10 04:59:19;;;;;;;12.77;2.57;;;15.60;99.90;;;;;;5095548;28;20085;-68
2022/07/10 05:01:45;;;;;;;14.53;2.83;;;15.50;99.90;;;;;;5095142;28;20043;-68
2022/07/10 05:04:11;;;;;;;9.27;3.10;;;15.60;99.90;;;;;;5095620;28;20105;-68
2022/07/10 05:06:37;;;;;;;9.67;2.20;;;15.60;99.90;;;;;;5095237;28;20063;-68
2022/07/10 05:09:03;;;;;;;9.23;2.20;;;15.60;99.90;;;;;;5095599;28;20274;-67
2022/07/10 05:11:30;;;;;;;13.03;2.43;;;15.60;99.90;;;;;;5095295;28;20044;-68
2022/07/10 05:13:56;;;;;;;7.90;2.17;;;15.60;99.90;;;;;;5095242;28;20853;-68
2022/07/10 05:16:21;;;;;;;10.57;2.27;;;15.60;99.90;;;;;;5095081;28;20768;-67
2022/07/10 05:18:47;;;;;;;9.00;2.20;;;15.70;99.90;;;;;;5094967;28;20328;-68
2022/07/10 05:21:13;;;;;;;10.90;2.30;;;15.80;99.90;;;;;;5095395;28;20070;-67
2022/07/10 05:23:39;;;;;;;9.17;2.00;;;15.80;99.90;;;;;;5094915;28;20094;-67
2022/07/10 05:26:05;;;;;;;7.20;1.97;;;15.80;99.90;;;;;;5094266;28;20048;-67
2022/07/10 05:28:31;;;;;;;10.00;2.73;;;15.90;99.90;;;;;;5094829;28;20048;-68
2022/07/10 05:30:56;;;;;;;9.40;2.23;;;15.90;99.90;;;;;;5094958;28;20290;-67
2022/07/10 05:33:22;;;;;;;6.80;1.60;;;16.00;99.90;;;;;;5095069;28;20090;-67
2022/07/10 05:35:48;;;;;;;6.90;1.63;;;16.10;99.90;;;;;;5094796;28;20067;-67
2022/07/10 05:38:13;;;;;;;7.80;2.30;;;16.10;99.90;;;;;;5093486;28;20389;-67
2022/07/10 05:40:39;;;;;;;8.67;2.27;;;16.10;99.90;;;;;;5094563;28;20245;-67
2022/07/10 05:43:05;;;;;;;7.67;2.27;;;16.10;99.90;;;;;;5094755;28;20079;-68
2022/07/10 05:45:31;;;;;;;8.83;2.20;;;16.20;99.90;;;;;;5094286;28;20051;-68
2022/07/10 05:47:57;;;;;;;11.47;2.47;;;16.10;99.90;;;;;;5094747;28;20091;-67
2022/07/10 05:50:22;;;;;;;11.93;2.57;;;16.10;99.90;;;;;;5094717;28;20035;-67
2022/07/10 05:52:48;;;;;;;8.07;2.00;;;16.10;99.90;;;;;;5094442;28;20048;-68
2022/07/10 05:55:14;;;;;;;11.20;2.43;;;16.10;99.90;;;;;;5094596;28;20047;-67
2022/07/10 05:57:40;;;;;;;9.97;2.93;;;16.10;99.90;;;;;;5094163;28;20052;-68
2022/07/10 06:00:07;;;;;;;10.10;2.50;;;16.10;99.90;;;;;;5093041;28;20336;-68
2022/07/10 06:02:33;;;;;;;10.07;3.10;;;16.00;99.90;;;;;;5093748;28;20048;-68
2022/07/10 06:04:59;;;;;;;9.50;3.20;;;16.00;99.90;;;;;;5093598;28;20792;-67
2022/07/10 06:07:25;;;;;;;11.20;2.60;;;16.00;99.90;;;;;;5094321;28;20044;-67
2022/07/10 06:09:51;;;;;;;9.53;2.47;;;16.00;99.90;;;;;;5093997;28;20367;-67
2022/07/10 06:12:17;;;;;;;12.20;2.40;;;16.10;99.90;;;;;;5093173;28;20757;-67
2022/07/10 06:14:43;;;;;;;8.07;2.43;;;16.10;99.90;;;;;;5093716;28;20120;-67
2022/07/10 06:17:08;;;;;;;10.30;2.50;;;16.10;99.90;;;;;;5093267;28;20039;-67
2022/07/10 06:19:34;;;;;;;8.73;2.30;;;16.10;99.90;;;;;;5094161;28;20574;-70
2022/07/10 06:24:44;;;;;;;11.27;2.20;;;16.10;99.90;;;;;;5093757;28;20101;-68
2022/07/10 06:27:10;;;;;;;11.93;2.30;;;16.10;99.90;;;;;;5093742;28;20286;-67
2022/07/10 06:29:35;;;;;;;6.40;1.63;;;16.10;99.90;;;;;;5093923;28;20077;-70
2022/07/10 06:32:01;;;;;;;9.43;2.40;;;16.10;99.90;;;;;;5094162;28;20134;-68
2022/07/10 06:34:27;;;;;;;7.10;2.00;;;16.10;99.90;;;;;;5093992;28;20484;-67
2022/07/10 06:36:52;;;;;;;10.63;1.80;;;16.20;99.90;;;;;;5093221;28;20040;-68
2022/07/10 06:39:18;;;;;;;9.23;2.47;;;16.20;99.90;;;;;;5093701;28;20133;-68
2022/07/10 06:41:44;;;;;;;10.13;3.00;;;16.20;99.90;;;;;;5092083;28;20139;-67
2022/07/10 06:44:10;;;;;;;5.90;1.97;;;16.20;99.90;;;;;;5093753;28;20101;-67
2022/07/10 06:46:35;;;;;;;6.03;1.73;;;16.10;99.90;;;;;;5093621;28;20083;-67
2022/07/10 06:49:01;;;;;;;9.53;2.13;;;16.10;99.90;;;;;;5093403;28;20048;-67
2022/07/10 06:51:27;;;;;;;8.17;1.80;;;16.10;99.90;;;;;;5093573;28;20047;-67
2022/07/10 06:53:53;;;;;;;7.80;1.87;;;16.10;99.90;;;;;;5093250;28;20059;-67
2022/07/10 06:56:18;;;;;;;7.47;1.60;;;16.10;99.90;;;;;;5093352;28;20044;-68
2022/07/10 06:58:44;;;;;;;5.23;1.73;;;16.10;99.90;;;;;;5093136;28;20048;-68
2022/07/10 07:01:10;;;;;;;6.80;1.67;;;16.20;99.90;;;;;;5092590;28;20044;-68
2022/07/10 07:03:35;;;;;;;6.77;1.40;;;16.30;99.90;;;;;;5093255;28;20547;-68
2022/07/10 07:06:01;;;;;;;7.63;2.10;;;16.30;99.90;;;;;;5093102;28;20483;-67
2022/07/10 07:08:29;;;;;;;10.03;2.43;;;16.30;99.90;;;;;;5093341;28;20036;-67
2022/07/10 07:10:55;;;;;;;6.30;1.30;;;16.40;99.90;;;;;;5092880;28;20044;-68
2022/07/10 07:13:21;;;;;;;5.90;1.70;;;16.50;99.90;;;;;;5093080;28;20044;-67
2022/07/10 07:15:56;;;;;;;9.13;2.37;;;16.40;99.90;;;;;;5092954;28;20048;-68
2022/07/10 07:18:31;;;;;;;6.13;1.73;;;16.40;99.90;;;;;;5093135;28;20580;-67
2022/07/10 07:23:41;;;;;;;7.18;1.50;;;16.50;99.90;;;;;;5093051;28;20480;-69
2022/07/10 07:26:07;;;;;;;5.37;1.57;;;16.50;99.90;;;;;;5093279;28;20043;-66
2022/07/10 07:28:33;;;;;;;3.27;1.23;;;16.50;99.90;;;;;;5093296;28;20046;-66
2022/07/10 07:30:59;;;;;;;6.23;1.70;;;16.50;99.90;;;;;;5092554;28;20044;-66
2022/07/10 07:33:25;;;;;;;6.53;1.60;;;16.50;99.90;;;;;;5092970;28;20047;-66
2022/07/10 07:35:51;;;;;;;5.50;1.70;;;16.60;99.90;;;;;;5092587;28;20048;-66
2022/07/10 07:38:17;;;;;;;7.73;1.70;;;16.60;99.90;;;;;;5092903;28;20147;-66
2022/07/10 07:40:43;;;;;;;4.23;1.43;;;16.70;99.90;;;;;;5092994;28;20130;-66
2022/07/10 07:43:09;;;;;;;6.10;1.90;;;16.60;99.90;;;;;;5092852;28;20126;-66
2022/07/10 07:45:35;;;;;;;7.30;1.60;;;16.60;99.90;;;;;;5092984;28;20040;-66
2022/07/10 07:48:04;;;;;;;6.70;1.50;;;16.60;99.90;;;;;;5092589;28;20048;-67
2022/07/10 07:50:32;;;;;;;6.90;1.60;;;16.50;99.90;;;;;;5092636;28;20117;-66
2022/07/10 07:52:59;;;;;;;6.93;2.40;;;16.50;99.90;;;;;;5092628;28;20391;-66
2022/07/10 07:55:25;;;;;;;6.77;2.00;;;16.50;99.90;;;;;;5093080;28;20087;-66
2022/07/10 07:57:53;;;;;;;8.10;1.90;;;16.50;99.90;;;;;;5092401;28;20044;-66
2022/07/10 08:00:22;;;;;;;6.27;1.80;;;16.50;99.90;;;;;;5092832;28;20055;-66
2022/07/10 08:02:48;;;;;;;6.07;2.00;;;16.60;99.90;;;;;;5092440;28;20063;-67
2022/07/10 08:05:14;;;;;;;8.20;1.70;;;16.60;99.90;;;;;;5092590;28;20048;-67
2022/07/10 08:07:40;;;;;;;9.73;2.17;;;16.70;99.90;;;;;;5092900;28;20092;-66
2022/07/10 08:10:13;;;;;;;8.47;2.10;;;16.70;99.90;;;;;;5092476;28;20048;-66
2022/07/10 08:12:40;;;;;;;8.23;2.13;;;16.70;99.90;;;;;;5091951;28;20056;-66
2022/07/10 08:15:08;;;;;;;5.90;1.77;;;16.70;99.90;;;;;;5090960;28;20104;-67
2022/07/10 08:17:34;;;;;;;11.60;2.50;;;16.70;99.90;;;;;;5092364;28;20075;-67
2022/07/10 08:20:00;;;;;;;7.63;2.00;;;16.80;99.90;;;;;;5092362;28;20564;-67
2022/07/10 08:22:26;;;;;;;6.90;1.70;;;16.80;99.90;;;;;;5092582;28;20066;-67
2022/07/10 08:24:51;;;;;;;5.70;1.87;;;16.90;99.90;;;;;;5076422;28;20476;-68
2022/07/10 08:27:17;;;;;;;6.43;1.73;;;16.90;99.90;;;;;;5096409;28;20066;-67
2022/07/10 08:29:43;;;;;;;8.63;1.90;;;16.90;99.90;;;;;;5096260;28;20044;-67
2022/07/10 08:32:09;;;;;;;9.30;2.13;;;17.00;99.90;;;;;;5095904;28;20130;-67
2022/07/10 08:34:35;;;;;;;6.23;1.80;;;17.00;99.90;;;;;;5095992;28;20488;-67
2022/07/10 08:37:02;;;;;;;8.17;1.97;;;17.00;99.90;;;;;;5095679;28;20040;-67
2022/07/10 08:39:27;;;;;;;6.47;1.80;;;17.00;99.90;;;;;;5096299;28;20052;-67
2022/07/10 08:41:53;;;;;;;7.87;2.10;;;17.10;99.90;;;;;;5095792;28;20553;-68
2022/07/10 08:44:19;;;;;;;6.67;1.90;;;17.10;99.90;;;;;;5095984;28;20399;-68
2022/07/10 08:46:45;;;;;;;5.20;1.83;;;17.10;99.90;;;;;;5095819;28;20051;-69
2022/07/10 08:49:13;;;;;;;9.07;2.43;;;17.10;99.90;;;;;;5095503;28;20044;-68
2022/07/10 08:52:05;;;;;;;6.63;2.10;;;17.10;99.90;;;;;;5096147;28;20047;-69
2022/07/10 08:54:32;;;;;;;8.97;1.90;;;17.10;99.90;;;;;;5093704;28;20129;-70
2022/07/10 08:57:01;;;;;;;10.13;2.03;;;17.20;99.90;;;;;;5095352;28;20106;-69
2022/07/10 08:59:27;;;;;;;6.57;2.27;;;17.30;99.90;;;;;;5095488;28;20138;-70
2022/07/10 09:01:54;;;;;;;9.33;2.00;;;17.40;99.90;;;;;;5095735;28;20502;-71
2022/07/10 09:04:25;;;;;;;7.30;1.90;;;17.50;99.90;;;;;;5095808;28;20067;-69
2022/07/10 09:06:52;;;;;;;6.93;1.70;;;17.60;99.90;;;;;;5095591;28;20433;-69
2022/07/10 09:09:19;;;;;;;5.30;1.77;;;17.80;99.90;;;;;;5095057;28;20492;-70
2022/07/10 09:11:45;;;;;;;8.43;1.87;;;17.90;99.90;;;;;;5095305;28;20100;-69
2022/07/10 09:14:14;;;;;;;9.93;2.13;;;17.90;99.90;;;;;;5094062;28;20051;-70
2022/07/10 09:16:42;;;;;;;7.57;1.80;;;17.80;99.90;;;;;;5095556;28;20048;-70
2022/07/10 09:19:19;;;;;;;6.00;1.73;;;17.80;99.90;;;;;;5095183;28;20048;-69
2022/07/10 09:21:53;;;;;;;6.43;1.77;;;17.80;99.90;;;;;;5095505;28;20044;-69
2022/07/10 09:24:20;;;;;;;5.37;2.00;;;17.70;99.90;;;;;;5094816;28;20055;-69
2022/07/10 09:27:03;;;;;;;9.47;2.17;;;17.70;99.90;;;;;;5085382;28;20093;-69
2022/07/10 09:29:33;;;;;;;9.93;2.20;;;17.70;99.90;;;;;;5080449;28;20487;-70
2022/07/10 09:32:00;;;;;;;6.87;2.13;;;17.70;99.90;;;;;;5092990;28;20048;-70
2022/07/10 09:34:35;;;;;;;7.60;1.90;;;17.80;99.90;;;;;;5093351;28;20137;-70
2022/07/10 09:37:17;;;;;;;5.37;2.37;;;17.80;99.90;;;;;;5088777;28;20056;-70
2022/07/10 09:39:56;;;;;;;4.93;1.60;;;17.80;99.90;;;;;;5093103;28;20052;-70
2022/07/10 09:42:28;;;;;;;6.73;1.80;;;17.80;99.90;;;;;;5092787;28;20127;-69
2022/07/10 09:45:16;;;;;;;7.60;2.23;;;17.80;99.90;;;;;;5093021;28;20054;-69
2022/07/10 09:47:46;;;;;;;11.13;2.03;;;17.80;99.90;;;;;;5074510;28;20044;-69
2022/07/10 09:50:25;;;;;;;8.33;2.00;;;17.80;99.90;;;;;;5074105;28;20087;-73
2022/07/10 09:52:58;;;;;;;9.60;2.47;;;17.90;99.90;;;;;;5056788;28;20139;-70
2022/07/10 09:55:27;;;;;;;7.17;2.00;;;17.90;99.90;;;;;;5074302;28;20049;-73
2022/07/10 09:57:55;;;;;;;7.57;2.00;;;18.00;99.90;;;;;;5074071;28;20080;-70
2022/07/10 10:00:25;;;;;;;5.93;1.80;;;18.10;99.90;;;;;;5073099;28;20157;-71
2022/07/10 10:02:55;;;;;;;7.23;1.90;;;18.20;99.90;;;;;;5074344;28;20060;-68
2022/07/10 10:05:30;;;;;;;7.33;2.20;;;18.30;99.90;;;;;;5073815;28;20040;-68
2022/07/10 10:07:57;;;;;;;6.80;2.25;;;18.30;99.90;;;;;;5074094;28;20484;-68
2022/07/10 10:10:23;;;;;;;7.70;1.90;;;18.20;99.90;;;;;;5073747;28;20049;-71
2022/07/10 10:12:54;;;;;;;7.53;1.83;;;18.20;99.90;;;;;;5074460;28;20101;-68
2022/07/10 10:15:22;;;;;;;7.40;1.70;;;18.30;99.90;;;;;;5073871;28;20051;-68
2022/07/10 10:17:50;;;;;;;6.97;2.00;;;18.30;99.90;;;;;;5073906;28;20049;-69
2022/07/10 10:20:49;;;;;;;10.00;2.47;;;18.30;99.90;;;;;;5073549;28;20083;-69
2022/07/10 10:23:12;;;;;;;9.47;2.10;;;18.40;99.90;;;;;;5074206;28;20048;-69
2022/07/10 10:25:38;;;;;;;11.10;2.50;;;18.50;99.90;;;;;;5073799;28;20040;-70
2022/07/10 10:28:09;;;;;;;5.50;1.63;;;18.60;99.90;;;;;;5072272;28;20080;-67
2022/07/10 10:30:40;;;;;;;5.77;1.37;;;18.80;99.90;;;;;;5073890;28;20044;-69
2022/07/10 10:33:34;;;;;;;8.83;2.00;;;18.80;99.90;;;;;;5073112;28;20048;-72
2022/07/10 10:36:05;;;;;;;6.13;1.83;;;18.90;99.90;;;;;;5073617;28;20067;-72
2022/07/10 10:38:51;;;;;;;6.40;1.97;;;18.80;99.90;;;;;;5073384;28;20064;-69
2022/07/10 10:41:26;;;;;;;7.53;2.10;;;18.70;99.90;;;;;;5073256;28;20113;-70
2022/07/10 10:44:16;;;;;;;5.70;1.70;;;18.70;99.90;;;;;;5112058;27;20161;-69
2022/07/10 10:46:54;;;;;;;5.27;1.73;;;18.60;99.90;;;;;;5090810;28;20515;-66
2022/07/10 10:49:22;;;;;;;9.03;2.20;;;18.60;99.90;;;;;;5092642;28;20048;-71
2022/07/10 10:52:02;;;;;;;7.10;1.77;;;18.60;99.90;;;;;;5092902;28;20055;-71
2022/07/10 10:54:30;;;;;;;10.70;2.17;;;18.60;99.90;;;;;;5090569;28;20044;-67
2022/07/10 10:57:15;;;;;;;9.00;2.03;;;18.60;99.90;;;;;;5093251;28;20048;-70
2022/07/10 10:59:47;;;;;;;7.23;2.47;;;18.50;99.90;;;;;;5093481;28;20389;-70
2022/07/10 11:02:34;;;;;;;7.77;2.10;;;18.40;99.90;;;;;;5092959;28;20051;-70
2022/07/10 11:05:18;;;;;;;8.90;1.97;;;18.40;99.90;;;;;;5093473;28;20054;-70
2022/07/10 11:08:02;;;;;;;7.93;2.23;;;18.20;99.90;;;;;;5093499;28;20051;-69
2022/07/10 11:10:37;;;;;;;10.17;1.90;;;18.10;99.90;;;;;;5092998;28;20614;-70
2022/07/10 11:13:11;;;;;;;12.00;2.00;;;18.00;99.90;;;;;;5091992;28;20054;-69
2022/07/10 11:15:57;;;;;;;8.30;1.80;;;18.00;99.90;;;;;;5093484;28;20135;-70
2022/07/10 11:18:24;;;;;;;9.10;2.03;;;18.00;99.90;;;;;;5092828;28;20044;-70
2022/07/10 11:20:53;;;;;;;6.90;2.00;;;18.00;99.90;;;;;;5075172;28;20396;-71
2022/07/10 11:23:49;;;;;;;6.80;1.93;;;18.00;99.90;;;;;;5092598;28;20048;-70
2022/07/10 11:26:34;;;;;;;7.43;2.00;;;18.20;99.90;;;;;;5092112;28;20048;-72
2022/07/10 11:29:04;;;;;;;6.50;1.70;;;18.20;99.90;;;;;;5092144;28;20050;-72
2022/07/10 11:31:34;;;;;;;5.60;2.00;;;18.30;99.90;;;;;;5092614;28;21033;-70
2022/07/10 11:34:00;;;;;;;7.83;2.00;;;18.30;99.90;;;;;;5093039;28;20047;-70
2022/07/10 11:36:31;;;;;;;8.97;2.23;;;18.40;99.90;;;;;;5092708;28;20051;-70
2022/07/10 11:39:04;;;;;;;7.50;2.47;;;18.40;99.90;;;;;;5092881;28;20102;-70
2022/07/10 11:41:30;;;;;;;5.43;1.70;;;18.40;99.90;;;;;;5092603;28;20052;-70
2022/07/10 11:43:58;;;;;;;6.13;1.53;;;18.50;99.90;;;;;;5092976;28;20102;-70
2022/07/10 11:46:26;;;;;;;13.00;2.50;;;18.60;99.90;;;;;;5092458;28;20135;-70
2022/07/10 11:48:59;;;;;;;4.23;1.50;;;18.60;99.90;;;;;;5092845;28;20119;-70
2022/07/10 11:51:36;;;;;;;6.60;1.67;;;18.70;99.90;;;;;;5092637;28;20598;-70
2022/07/10 11:54:11;;;;;;;6.60;1.83;;;18.70;99.90;;;;;;5092805;28;20558;-70
2022/07/10 11:56:41;;;;;;;;;;;18.70;99.90;;;;;;5092878;28;20040;-71
2022/07/10 11:59:11;;;;;;;6.20;1.67;;;18.70;99.90;;;;;;5093839;28;19927;-70
2022/07/10 12:01:49;;;;;;;7.33;2.37;;;18.70;99.90;;;;;;5096672;28;20048;-70
2022/07/10 12:04:17;;;;;;;6.43;1.97;;;18.80;99.90;;;;;;5096401;28;20079;-71
2022/07/10 12:06:46;;;;;;;6.93;1.60;;;18.90;99.90;;;;;;5095588;28;20483;-71
2022/07/10 12:09:13;;;;;;;9.00;2.10;;;18.90;99.90;;;;;;5096504;28;20119;-70
2022/07/10 12:11:40;;;;;;;8.37;2.07;;;18.80;99.90;;;;;;5096461;28;20538;-70
2022/07/10 12:14:19;;;;;;;4.90;1.47;;;18.80;99.90;;;;;;5096645;28;20044;-70
2022/07/10 12:16:51;;;;;;;5.50;1.70;;;18.80;99.90;;;;;;5096702;28;20097;-71
2022/07/10 12:19:24;;;;;;;6.77;2.00;;;18.80;99.90;;;;;;5096267;28;20046;-71
2022/07/10 12:21:51;;;;;;;7.70;1.90;;;18.90;99.90;;;;;;5096573;28;20048;-71
2022/07/10 12:24:23;;;;;;;6.53;2.00;;;18.90;99.90;;;;;;5096222;28;20051;-71
2022/07/10 12:26:49;;;;;;;5.07;1.80;;;19.10;99.90;;;;;;5096729;28;20052;-71
2022/07/10 12:29:19;;;;;;;7.07;1.63;;;19.20;99.90;;;;;;5096321;28;20040;-70
2022/07/10 12:31:47;;;;;;;11.70;1.93;;;19.40;99.90;;;;;;5095231;28;20086;-71
2022/07/10 12:34:13;;;;;;;9.47;1.70;;;19.50;99.90;;;;;;5096038;28;20052;-70
2022/07/10 12:36:50;;;;;;;4.97;1.57;;;19.50;99.90;;;;;;5094942;28;20064;-70
2022/07/10 12:39:24;;;;;;;6.77;1.90;;;19.60;99.90;;;;;;5096023;28;20048;-70
2022/07/10 12:42:05;;;;;;;6.53;1.90;;;19.70;99.90;;;;;;5096091;28;20043;-70
2022/07/10 12:44:32;;;;;;;4.03;1.43;;;19.70;99.90;;;;;;5095666;28;20080;-71
2022/07/10 12:47:19;;;;;;;6.07;1.87;;;19.80;99.90;;;;;;5096077;28;20052;-71
2022/07/10 12:50:13;;;;;;;5.80;1.60;;;20.00;99.90;;;;;;5095987;28;20052;-70
2022/07/10 12:52:39;;;;;;;5.30;1.53;;;20.10;99.90;;;;;;5095484;28;20801;-68
2022/07/10 12:55:15;;;;;;;6.13;1.80;;;20.30;99.90;;;;;;5095651;28;20046;-71
2022/07/10 12:57:54;;;;;;;5.47;2.50;;;20.40;99.90;;;;;;5095566;28;20040;-68